createdAt,value
2023-05-11T11:33:09.567Z,17.40
2023-05-11T11:35:42.694Z,17.40
2023-05-11T11:38:12.080Z,17.50
2023-05-11T11:40:50.703Z,17.40
2023-05-11T11:43:29.953Z,17.50
2023-05-11T11:45:58.357Z,17.50
2023-05-11T11:48:42.378Z,17.40
2023-05-11T11:51:13.865Z,17.50
2023-05-11T11:53:45.368Z,17.50
2023-05-11T11:56:14.927Z,17.50
2023-05-11T11:58:41.842Z,17.50
2023-05-11T12:01:19.981Z,17.50
2023-05-11T12:03:54.164Z,17.60
2023-05-11T12:06:26.691Z,17.60
2023-05-11T12:08:54.058Z,17.70
2023-05-11T12:11:23.203Z,17.70
2023-05-11T12:13:50.061Z,17.60
2023-05-11T12:16:18.842Z,17.60
2023-05-11T12:18:54.586Z,17.60
2023-05-11T12:21:30.126Z,17.60
2023-05-11T12:24:02.534Z,17.60
2023-05-11T12:26:31.064Z,17.70
2023-05-11T12:29:08.860Z,17.60
2023-05-11T12:31:39.853Z,17.30
2023-05-11T12:34:07.256Z,17.40
2023-05-11T12:36:35.211Z,17.30
2023-05-11T12:39:02.109Z,17.30
2023-05-11T12:41:28.959Z,17.40
2023-05-11T12:43:56.270Z,17.70
2023-05-11T12:46:25.958Z,17.80
2023-05-11T12:48:53.222Z,17.80
2023-05-11T12:51:42.785Z,17.80
2023-05-11T12:54:10.080Z,17.60
2023-05-11T12:56:49.049Z,17.40
2023-05-11T12:59:30.358Z,17.40
2023-05-11T13:02:10.006Z,17.30
2023-05-11T13:04:37.752Z,17.20
2023-05-11T13:07:06.402Z,17.10
2023-05-11T13:09:33.595Z,17.20
2023-05-11T13:12:19.295Z,17.50
2023-05-11T13:14:48.302Z,17.70
2023-05-11T13:17:31.539Z,17.80
2023-05-11T13:20:26.674Z,18.00
2023-05-11T13:23:11.485Z,18.10
2023-05-11T13:25:48.824Z,18.10
2023-05-11T13:28:16.867Z,18.10
2023-05-11T13:30:44.630Z,18.20
2023-05-11T13:33:11.502Z,18.10
2023-05-11T13:35:39.627Z,18.10
2023-05-11T13:38:06.911Z,18.20
2023-05-11T13:40:35.003Z,18.30
2023-05-11T13:43:02.181Z,18.40
2023-05-11T13:45:29.314Z,18.40
2023-05-11T13:47:56.425Z,18.40
2023-05-11T13:50:23.963Z,18.40
2023-05-11T13:52:51.733Z,18.40
2023-05-11T13:55:19.011Z,18.30
2023-05-11T13:57:46.179Z,18.20
2023-05-11T14:00:13.586Z,18.20
2023-05-11T14:02:40.589Z,18.30
2023-05-11T14:05:08.483Z,18.30
2023-05-11T14:07:46.777Z,18.30
2023-05-11T14:10:14.576Z,18.30
2023-05-11T14:12:41.568Z,18.30
2023-05-11T14:15:09.029Z,18.20
2023-05-11T14:17:35.971Z,18.10
2023-05-11T14:20:03.807Z,18.10
2023-05-11T14:22:30.651Z,18.10
2023-05-11T14:24:57.525Z,18.20
2023-05-11T14:27:25.449Z,18.20
2023-05-11T14:29:52.425Z,18.20
2023-05-11T14:32:19.790Z,18.20
2023-05-11T14:34:47.707Z,18.10
2023-05-11T14:37:14.715Z,18.20
2023-05-11T14:39:41.679Z,18.20
2023-05-11T14:42:09.421Z,18.20
2023-05-11T14:44:36.162Z,18.20
2023-05-11T14:47:02.997Z,18.20
2023-05-11T14:49:29.834Z,18.20
2023-05-11T14:51:57.774Z,18.20
2023-05-11T14:54:24.763Z,18.20
2023-05-11T14:56:56.200Z,18.20
2023-05-11T14:59:26.887Z,18.20
2023-05-11T15:01:54.010Z,18.10
2023-05-11T15:04:20.915Z,18.10
2023-05-11T15:06:48.361Z,18.10
2023-05-11T15:09:15.411Z,18.20
2023-05-11T15:11:42.322Z,18.10
2023-05-11T15:14:09.822Z,18.10
2023-05-11T15:16:37.734Z,18.20
2023-05-11T15:19:05.988Z,18.20
2023-05-11T15:21:33.086Z,18.10
2023-05-11T15:23:59.929Z,18.10
2023-05-11T15:26:26.920Z,18.10
2023-05-11T15:28:53.692Z,18.20
2023-05-11T15:31:20.799Z,18.20
2023-05-11T15:33:47.675Z,18.00
2023-05-11T15:36:15.709Z,18.00
2023-05-11T15:38:43.384Z,18.00
2023-05-11T15:41:10.494Z,18.00
2023-05-11T15:43:37.316Z,18.10
2023-05-11T15:46:05.699Z,18.00
2023-05-11T15:48:32.814Z,18.00
2023-05-11T15:51:01.114Z,18.00
2023-05-11T15:53:28.830Z,18.00
2023-05-11T15:55:56.640Z,18.00
2023-05-11T15:58:23.649Z,18.00
2023-05-11T16:00:50.707Z,18.00
2023-05-11T16:03:17.896Z,18.00
2023-05-11T16:05:45.489Z,18.00
2023-05-11T16:08:13.139Z,18.00
2023-05-11T16:10:40.061Z,17.80
2023-05-11T16:13:07.188Z,17.90
2023-05-11T16:15:34.027Z,17.90
2023-05-11T16:18:03.964Z,18.00
2023-05-11T16:20:34.241Z,18.00
2023-05-11T16:23:01.126Z,18.00
2023-05-11T16:25:27.928Z,17.90
2023-05-11T16:27:54.750Z,17.90
2023-05-11T16:30:24.935Z,17.80
2023-05-11T16:32:53.268Z,17.70
2023-05-11T16:35:20.916Z,17.60
2023-05-11T16:37:48.996Z,17.60
2023-05-11T16:40:21.116Z,17.60
2023-05-11T16:42:49.023Z,17.70
2023-05-11T16:45:16.631Z,17.80
2023-05-11T16:47:46.713Z,17.70
2023-05-11T16:50:18.246Z,17.70
2023-05-11T16:52:45.340Z,17.70
2023-05-11T16:55:13.104Z,17.70
2023-05-11T16:57:39.923Z,17.70
2023-05-11T17:00:08.424Z,17.70
2023-05-11T17:02:35.312Z,17.80
2023-05-11T17:05:02.366Z,17.70
2023-05-11T17:07:29.107Z,17.70
2023-05-11T17:09:57.317Z,17.70
2023-05-11T17:12:29.341Z,17.70
2023-05-11T17:14:57.395Z,17.80
2023-05-11T17:17:24.644Z,17.90
2023-05-11T17:19:51.793Z,17.80
2023-05-11T17:22:18.946Z,17.80
2023-05-11T17:24:46.778Z,17.60
2023-05-11T17:27:13.700Z,17.60
2023-05-11T17:29:43.540Z,17.50
2023-05-11T17:32:10.618Z,17.50
2023-05-11T17:34:37.634Z,17.60
2023-05-11T17:37:04.967Z,17.50
2023-05-11T17:39:32.091Z,17.50
2023-05-11T17:41:58.967Z,17.50
2023-05-11T17:44:28.684Z,17.40
2023-05-11T17:46:55.512Z,17.40
2023-05-11T17:49:22.355Z,17.40
2023-05-11T17:51:49.266Z,17.40
2023-05-11T17:54:16.157Z,17.40
2023-05-11T17:56:43.102Z,17.40
2023-05-11T17:59:09.911Z,17.30
2023-05-11T18:01:36.751Z,17.20
2023-05-11T18:04:04.644Z,17.30
2023-05-11T18:06:32.685Z,17.30
2023-05-11T18:08:59.513Z,17.30
2023-05-11T18:11:27.137Z,17.20
2023-05-11T18:13:54.325Z,17.10
2023-05-11T18:16:24.456Z,17.10
2023-05-11T18:18:51.813Z,17.20
2023-05-11T18:21:19.070Z,17.20
2023-05-11T18:23:45.985Z,17.20
2023-05-11T18:26:14.096Z,17.20
2023-05-11T18:28:41.000Z,17.20
2023-05-11T18:31:08.089Z,17.20
2023-05-11T18:33:34.878Z,17.20
2023-05-11T18:36:03.362Z,17.20
2023-05-11T18:38:30.181Z,17.30
2023-05-11T18:40:57.520Z,17.30
2023-05-11T18:43:25.198Z,17.10
2023-05-11T18:45:52.835Z,16.90
2023-05-11T18:48:20.457Z,16.90
2023-05-11T18:50:54.422Z,16.90
2023-05-11T18:53:21.677Z,16.60
2023-05-11T18:55:53.046Z,16.60
2023-05-11T18:58:20.944Z,16.90
2023-05-11T19:00:48.764Z,16.90
2023-05-11T19:03:17.513Z,16.80
2023-05-11T19:05:44.888Z,16.80
2023-05-11T19:08:11.878Z,16.90
2023-05-11T19:10:40.460Z,16.70
2023-05-11T19:13:07.875Z,16.60
2023-05-11T19:15:34.852Z,16.70
2023-05-11T19:18:01.706Z,16.60
2023-05-11T19:20:28.542Z,16.40
2023-05-11T19:22:55.447Z,16.50
2023-05-11T19:25:22.692Z,16.50
2023-05-11T19:27:49.544Z,16.50
2023-05-11T19:30:16.485Z,16.50
2023-05-11T19:32:44.401Z,16.60
2023-05-11T19:35:12.739Z,16.40
2023-05-11T19:37:39.539Z,16.30
2023-05-11T19:40:42.964Z,16.30
2023-05-11T19:42:53.937Z,16.30
2023-05-11T19:45:20.956Z,16.40
2023-05-11T19:47:47.804Z,16.50
2023-05-11T19:50:15.001Z,16.50
2023-05-11T19:52:41.829Z,16.40
2023-05-11T19:55:08.756Z,16.40
2023-05-11T19:57:37.395Z,16.40
2023-05-11T20:00:06.003Z,16.40
